עמוד ראשי
METAR-TAF:

METAR-TAF

שדות תעופה :

נג'ף, עיראק

קו רוחב: 31-59-23N, קו אורך: 44-24-15E, גובה: 31מטר

תצפית מזג אוויר נוכחית

הדו"ח נערך לפני 22דקות, בשעה 19:00 UTC
רוח 6קשר מכיוון צפון-מערב
טמפרטורת 38 צלסיוס
לחות 15%
לחץ 1001 hPa
ראות: 7000מטר

METAR: ORNI 131900Z 31006KT 7000 NSC 38/07 Q1001

זמן: 22:22 (19:22 UTC)


TAF: חסר

תצפיות ותחזיות מזג אוויר לגבי יותר מ- 4,000 שדות תעופה ברחבי העולם. דוחות METAR ו- TAF.

התחנות הזמינות מסומנות בנקודות צהובות ואדומות על גבי המפה.

העבר את העכבר לנקודה הצבעונית על מנת לראות את שם התחנה.

לאחר מכן, לחץ כדי לראות את תוכן ואת תחזיות מזג האוויר.

כדי לשנות את המפה: לחץ על הכפתורים הירוקים עם הפלוס השחור כדי להתקרב; על הכפתור הירוק עם המקף כדי להתרחק; או בחיצים הירוקים למפות סמוכות.


METAR-TAF: